createdAt,value
2023-05-24T00:08:23.907Z,41.08
2023-05-24T00:18:32.285Z,41.41
2023-05-24T00:28:37.764Z,41.74
2023-05-24T00:38:43.082Z,42.57
2023-05-24T00:48:46.936Z,43.13
2023-05-24T00:58:54.990Z,43.17
2023-05-24T01:09:26.648Z,43.49
2023-05-24T01:20:03.309Z,43.74
2023-05-24T01:30:07.824Z,44.07
2023-05-24T01:40:14.684Z,44.59
2023-05-24T01:50:27.158Z,44.82
2023-05-24T02:00:35.699Z,45.07
2023-05-24T02:10:44.888Z,45.33
2023-05-24T02:20:50.289Z,45.48
2023-05-24T02:30:53.938Z,45.69
2023-05-24T02:41:00.996Z,45.70
2023-05-24T02:51:04.849Z,45.42
2023-05-24T03:01:08.836Z,45.44
2023-05-24T03:11:13.099Z,45.81
2023-05-24T03:21:21.101Z,45.44
2023-05-24T03:31:28.661Z,44.84
2023-05-24T03:41:34.585Z,44.23
2023-05-24T03:51:38.558Z,43.89
2023-05-24T04:01:42.259Z,44.10
2023-05-24T04:11:45.887Z,43.86
2023-05-24T04:21:50.465Z,43.76
2023-05-24T04:31:56.615Z,43.79
2023-05-24T04:42:01.480Z,43.19
2023-05-24T04:52:05.501Z,42.78
2023-05-24T05:02:09.096Z,41.17
2023-05-24T05:12:14.574Z,39.45
2023-05-24T05:22:18.263Z,37.64
2023-05-24T05:32:23.892Z,35.86
2023-05-24T05:42:27.582Z,34.58
2023-05-24T05:52:32.402Z,32.25
2023-05-24T06:02:36.195Z,30.51
2023-05-24T06:12:40.831Z,29.91
2023-05-24T06:22:45.836Z,29.39
2023-05-24T06:32:49.537Z,28.88
2023-05-24T06:42:58.887Z,29.15
2023-05-24T06:53:07.722Z,28.96
2023-05-24T07:03:12.983Z,29.04
2023-05-24T07:13:18.457Z,29.48
2023-05-24T07:23:22.002Z,28.89
2023-05-24T07:33:25.654Z,28.05
2023-05-24T07:43:33.011Z,26.82
2023-05-24T07:53:38.074Z,26.87
2023-05-24T08:03:41.833Z,27.48
2023-05-24T08:13:47.539Z,27.87
2023-05-24T08:23:51.405Z,28.34
2023-05-24T08:33:56.460Z,28.81
2023-05-24T08:44:02.796Z,28.46
2023-05-24T08:54:07.778Z,28.54
2023-05-24T09:04:12.084Z,29.11
2023-05-24T09:14:16.084Z,28.80
2023-05-24T09:24:20.832Z,27.05
2023-05-24T09:34:24.446Z,25.02
2023-05-24T09:44:30.688Z,24.28
2023-05-24T09:54:36.583Z,22.63
2023-05-24T10:04:42.522Z,22.36
2023-05-24T10:14:46.453Z,21.63
2023-05-24T10:24:55.682Z,21.60
2023-05-24T10:35:00.863Z,22.56
2023-05-24T10:45:36.073Z,25.22
2023-05-24T10:56:09.855Z,26.91
2023-05-24T11:06:15.633Z,26.77
2023-05-24T11:16:35.750Z,26.33
2023-05-24T11:26:41.118Z,25.59
2023-05-24T11:36:46.393Z,26.29
2023-05-24T11:47:03.582Z,27.71
2023-05-24T11:57:07.267Z,28.70
2023-05-24T12:07:13.270Z,28.77
2023-05-24T12:17:18.697Z,26.87
2023-05-24T12:27:35.002Z,26.20
2023-05-24T12:37:40.375Z,25.91
2023-05-24T12:47:45.155Z,26.16
2023-05-24T12:57:54.293Z,26.12
2023-05-24T13:07:58.315Z,25.57
2023-05-24T13:18:03.753Z,25.31
2023-05-24T13:28:07.608Z,25.16
2023-05-24T13:38:11.317Z,25.48
2023-05-24T13:48:15.389Z,25.43
2023-05-24T13:58:25.474Z,25.37
2023-05-24T14:08:35.959Z,25.22
2023-05-24T14:19:11.416Z,25.46
2023-05-24T14:42:11.248Z,26.29
2023-05-24T14:52:26.119Z,26.34
2023-05-24T15:02:31.508Z,26.36
2023-05-24T15:12:35.822Z,26.26
2023-05-24T15:22:39.756Z,26.47
2023-05-24T15:32:43.694Z,26.72
2023-05-24T15:42:47.325Z,26.62
2023-05-24T15:52:51.147Z,26.34
2023-05-24T16:02:56.129Z,26.49
2023-05-24T16:13:00.013Z,26.40
2023-05-24T16:23:03.995Z,26.91
2023-05-24T16:33:07.943Z,27.27
2023-05-24T16:43:11.968Z,27.88
2023-05-24T16:53:16.060Z,28.07
2023-05-24T17:13:31.639Z,28.70
2023-05-24T17:23:40.802Z,29.09
2023-05-24T17:33:44.873Z,29.18
2023-05-24T17:43:50.215Z,29.44
2023-05-24T17:53:54.341Z,30.34
2023-05-24T18:03:58.299Z,31.05
2023-05-24T18:14:04.097Z,31.96
2023-05-24T18:24:08.007Z,32.85
2023-05-24T18:34:12.956Z,34.04
2023-05-24T18:44:20.299Z,35.18
2023-05-24T18:54:30.687Z,35.82
2023-05-24T19:04:34.708Z,36.36
2023-05-24T19:14:40.333Z,37.00
2023-05-24T19:47:14.403Z,37.89
2023-05-24T19:57:18.377Z,38.03
2023-05-24T20:07:22.154Z,38.15
2023-05-24T20:17:25.852Z,38.92
2023-05-24T20:27:30.234Z,39.37
2023-05-24T20:37:34.047Z,39.63
2023-05-24T20:47:42.287Z,39.62
2023-05-24T20:57:48.072Z,39.75
2023-05-24T21:07:59.209Z,39.85
2023-05-24T21:18:04.729Z,40.82
2023-05-24T21:28:08.559Z,40.73
2023-05-24T21:38:12.182Z,40.89
2023-05-24T21:48:15.719Z,41.29
2023-05-24T21:58:19.486Z,41.55
2023-05-24T22:08:23.159Z,42.79
2023-05-24T22:18:28.550Z,41.74
2023-05-24T22:29:00.979Z,41.56
2023-05-24T22:39:05.515Z,41.46
2023-05-24T22:49:13.378Z,42.57
2023-05-24T22:59:17.089Z,44.00
2023-05-24T23:09:35.099Z,44.67
2023-05-24T23:19:43.358Z,45.26
2023-05-24T23:29:47.256Z,45.38
2023-05-24T23:39:51.027Z,46.02
2023-05-24T23:49:54.741Z,46.86
2023-05-24T23:59:58.338Z,47.58
